Time;durP1;ratioP1;P1;durP2;ratioP2;P2;SDS_P1;SDS_P2;PMS_P1;PMS_P2;Temp;Humidity;BMP_temperature;BMP_pressure;BME280_temperature;BME280_humidity;BME280_pressure;Samples;Min_cycle;Max_cycle;Signal;HPM_P1;HPM_P2
2023/01/30 00:01:27;;;;;;;25.83;14.05;;;;;;;-0.63;55.46;100347.28;7657038;32;39913;-82
2023/01/30 00:05:43;;;;;;;24.52;14.20;;;;;;;-0.72;55.53;100343.03;7669699;32;39160;-82
2023/01/30 00:09:59;;;;;;;23.70;13.15;;;;;;;-0.89;55.79;100345.06;7666865;32;36894;-81
2023/01/30 00:14:15;;;;;;;24.12;14.57;;;;;;;-0.99;56.14;100346.13;7663572;32;39843;-82
2023/01/30 00:18:32;;;;;;;22.42;13.32;;;;;;;-1.01;56.22;100345.50;7682229;32;39984;-82
2023/01/30 00:22:48;;;;;;;23.80;13.95;;;;;;;-1.06;56.30;100349.75;7686183;32;38250;-82
2023/01/30 00:27:16;;;;;;;23.90;13.57;;;;;;;-0.98;56.03;100344.31;7686506;32;37708;-81
2023/01/30 00:31:32;;;;;;;22.70;13.82;;;;;;;-0.98;56.16;100341.63;7686391;32;40257;-80
2023/01/30 00:35:50;;;;;;;25.95;14.80;;;;;;;-1.08;56.41;100341.06;7677411;32;40181;-83
2023/01/30 00:40:07;;;;;;;22.17;13.98;;;;;;;-1.15;56.61;100338.28;7686204;32;38017;-82
2023/01/30 00:48:58;;;;;;;26.42;14.52;;;;;;;-1.20;56.65;100327.28;7666705;32;40148;-82
2023/01/30 00:53:15;;;;;;;24.40;14.93;;;;;;;-1.45;57.14;100318.63;7659827;32;40857;-80
2023/01/30 00:57:31;;;;;;;26.05;14.38;;;;;;;-1.23;56.73;100312.41;7665097;32;38781;-77
2023/01/30 01:01:47;;;;;;;25.90;14.15;;;;;;;-1.25;56.64;100321.66;7671472;32;37201;-79
2023/01/30 01:06:04;;;;;;;23.90;14.02;;;;;;;-1.53;57.50;100322.22;7668537;32;39337;-82
2023/01/30 01:10:21;;;;;;;27.83;15.18;;;;;;;-1.48;57.44;100321.66;7659712;32;39953;-81
2023/01/30 01:14:37;;;;;;;25.50;15.27;;;;;;;-1.38;57.42;100314.22;7659478;32;38044;-82
2023/01/30 01:18:54;;;;;;;26.10;14.93;;;;;;;-1.43;57.58;100311.25;7666667;32;37774;-81
2023/01/30 01:23:10;;;;;;;24.87;15.60;;;;;;;-1.53;57.78;100301.66;7672253;32;39559;-80
2023/01/30 01:27:27;;;;;;;27.13;15.05;;;;;;;-1.36;57.42;100301.53;7669057;32;40044;-82
2023/01/30 01:31:44;;;;;;;28.67;14.82;;;;;;;-1.42;57.39;100284.34;7659267;32;38639;-82
2023/01/30 01:36:00;;;;;;;29.77;14.85;;;;;;;-1.02;56.23;100279.62;7659149;32;37322;-82
2023/01/30 01:45:17;;;;;;;24.20;15.00;;;;;;;-1.51;57.57;100261.37;7664274;32;40015;-81
2023/01/30 01:49:35;;;;;;;24.80;14.63;;;;;;;-1.35;57.02;100252.34;7659626;32;38732;-82
2023/01/30 01:54:00;;;;;;;28.67;15.18;;;;;;;-1.43;56.99;100247.06;7671996;32;36244;-81
2023/01/30 01:58:23;;;;;;;24.02;14.70;;;;;;;-1.12;56.35;100235.38;7685464;32;40072;-82
2023/01/30 02:03:09;;;;;;;28.07;15.87;;;;;;;-1.05;56.18;100228.28;7685680;32;40610;-82
2023/01/30 02:07:27;;;;;;;24.05;14.60;;;;;;;-1.27;56.99;100225.53;7684542;32;37956;-82
2023/01/30 02:11:56;;;;;;;32.15;15.65;;;;;;;-1.30;57.10;100212.50;7681273;32;38007;-82
2023/01/30 02:16:12;;;;;;;29.25;15.30;;;;;;;-1.53;57.31;100213.41;7666595;32;39489;-82
2023/01/30 02:20:32;;;;;;;25.30;16.15;;;;;;;-1.34;56.93;100220.06;7658667;32;40840;-83
2023/01/30 02:25:09;;;;;;;32.10;16.85;;;;;;;-1.43;57.13;100207.81;7658675;32;38004;-81
2023/01/30 02:29:59;;;;;;;28.02;16.52;;;;;;;-1.59;57.33;100191.91;7657974;32;37298;-82
2023/01/30 02:34:43;;;;;;;30.35;15.57;;;;;;;-1.82;57.96;100182.09;7659359;32;40023;-82
2023/01/30 02:39:05;;;;;;;28.20;14.27;;;;;;;-1.40;56.82;100174.50;7684471;32;41250;-81
2023/01/30 02:43:24;;;;;;;30.63;15.17;;;;;;;-1.68;57.49;100169.78;7664968;32;38521;-82
2023/01/30 02:48:01;;;;;;;25.08;14.23;;;;;;;-1.80;57.97;100173.91;7669487;32;37345;-82
2023/01/30 02:52:17;;;;;;;27.58;14.90;;;;;;;-1.66;57.64;100167.75;7673229;32;39254;-82
2023/01/30 02:56:51;;;;;;;25.88;14.85;;;;;;;-1.73;57.62;100172.16;7684599;32;39973;-81
2023/01/30 03:01:28;;;;;;;28.58;14.80;;;;;;;-1.74;57.59;100160.66;7684636;32;38496;-81
2023/01/30 03:06:06;;;;;;;26.90;15.10;;;;;;;-1.63;57.35;100156.69;7684637;32;37357;-80
2023/01/30 03:10:42;;;;;;;29.95;15.63;;;;;;;-1.62;57.55;100153.03;7684438;32;40137;-80
2023/01/30 03:15:07;;;;;;;29.42;14.87;;;;;;;-1.92;58.41;100147.59;7647953;32;40105;-81
2023/01/30 03:19:23;;;;;;;29.63;16.20;;;;;;;-1.70;58.05;100139.72;7644932;32;37655;-81
2023/01/30 03:23:40;;;;;;;27.48;15.98;;;;;;;-1.67;57.94;100144.72;7657964;32;38089;-81
2023/01/30 03:27:56;;;;;;;31.17;15.93;;;;;;;-2.02;59.12;100139.03;7657904;32;39393;-81
2023/01/30 03:32:13;;;;;;;29.65;15.63;;;;;;;-1.88;58.62;100132.03;7657715;32;40919;-81
2023/01/30 03:36:29;;;;;;;29.25;15.85;;;;;;;-2.00;58.67;100138.84;7657592;32;37998;-81
2023/01/30 03:40:46;;;;;;;26.73;16.33;;;;;;;-1.86;58.67;100139.88;7661468;32;34494;-81
2023/01/30 03:45:02;;;;;;;28.10;15.25;;;;;;;-1.92;58.78;100131.56;7644535;32;39398;-83
2023/01/30 03:49:19;;;;;;;29.52;16.02;;;;;;;-1.80;58.19;100126.62;7657422;32;39936;-81
2023/01/30 03:53:35;;;;;;;25.77;15.52;;;;;;;-1.64;57.90;100109.56;7657350;32;38482;-82
2023/01/30 03:57:58;;;;;;;29.65;16.05;;;;;;;-2.02;59.04;100101.59;7657734;32;36976;-82
2023/01/30 04:02:19;;;;;;;28.27;14.90;;;;;;;-1.95;58.71;100104.38;7657895;32;39306;-81
2023/01/30 04:06:36;;;;;;;30.65;16.12;;;;;;;-1.68;58.08;100096.78;7657094;32;39665;-81
2023/01/30 04:10:52;;;;;;;28.83;15.57;;;;;;;-1.77;58.00;100102.19;7661290;32;37967;-82
2023/01/30 04:15:09;;;;;;;27.42;15.43;;;;;;;-1.87;58.14;100100.81;7680324;32;36062;-83
2023/01/30 04:19:25;;;;;;;26.62;14.43;;;;;;;-1.62;57.36;100091.53;7683074;32;40166;-82
2023/01/30 04:23:42;;;;;;;28.23;15.40;;;;;;;-1.82;57.73;100090.41;7683092;32;39789;-81
2023/01/30 04:27:58;;;;;;;23.85;15.00;;;;;;;-1.69;57.46;100082.59;7677033;32;35956;-82
2023/01/30 04:32:14;;;;;;;27.27;14.98;;;;;;;-1.74;57.38;100074.28;7656948;32;34970;-81
2023/01/30 04:36:31;;;;;;;25.88;14.93;;;;;;;-1.83;57.34;100076.19;7656334;32;40223;-81
2023/01/30 04:40:49;;;;;;;26.40;15.25;;;;;;;-1.82;57.40;100074.37;7679100;32;39819;-82
2023/01/30 04:45:06;;;;;;;30.33;15.57;;;;;;;-2.12;58.13;100075.19;7671924;32;36574;-81
2023/01/30 04:49:22;;;;;;;29.37;15.80;;;;;;;-1.75;56.89;100078.78;7682503;32;38061;-81
2023/01/30 04:53:38;;;;;;;29.27;15.27;;;;;;;-1.97;57.42;100067.16;7684204;32;40087;-82
2023/01/30 04:57:55;;;;;;;25.00;14.13;;;;;;;-2.32;58.74;100072.19;7685840;32;41260;-81
2023/01/30 05:02:11;;;;;;;33.63;15.75;;;;;;;-2.01;57.79;100067.72;7672291;32;37675;-81
2023/01/30 05:06:29;;;;;;;26.58;16.05;;;;;;;-1.97;57.81;100059.12;7686260;32;38274;-81
2023/01/30 05:10:45;;;;;;;27.75;15.90;;;;;;;-2.07;58.28;100061.25;7661430;32;40169;-81
2023/01/30 05:15:01;;;;;;;27.33;14.25;;;;;;;-2.10;58.18;100062.47;7682620;32;40025;-81
2023/01/30 05:19:18;;;;;;;27.60;15.40;;;;;;;-2.02;58.24;100064.22;7685694;32;38207;-81
2023/01/30 05:23:34;;;;;;;29.42;14.63;;;;;;;-1.91;57.79;100055.75;7672089;32;37234;-82
2023/01/30 05:27:50;;;;;;;32.05;16.23;;;;;;;-2.01;58.25;100052.53;7685820;32;39326;-81
2023/01/30 05:32:07;;;;;;;28.70;16.00;;;;;;;-2.18;58.89;100051.03;7685474;32;40061;-81
2023/01/30 05:36:23;;;;;;;31.02;16.08;;;;;;;-1.99;58.43;100061.19;7685530;32;37955;-82
2023/01/30 05:40:40;;;;;;;28.30;14.70;;;;;;;-1.95;58.08;100051.78;7659619;32;37873;-81
2023/01/30 05:44:56;;;;;;;27.60;15.20;;;;;;;-1.99;58.38;100053.16;7659819;32;39401;-80
2023/01/30 05:49:12;;;;;;;24.37;13.43;;;;;;;-1.89;58.02;100059.06;7659028;32;39920;-81
2023/01/30 05:53:31;;;;;;;25.85;13.95;;;;;;;-1.85;58.08;100045.34;7682774;32;38135;-81
2023/01/30 05:57:47;;;;;;;28.33;14.87;;;;;;;-1.87;57.83;100042.84;7685333;32;37553;-81
2023/01/30 06:02:03;;;;;;;25.95;14.82;;;;;;;-1.85;57.90;100040.81;7685460;32;40186;-81
2023/01/30 06:06:20;;;;;;;27.67;15.15;;;;;;;-1.72;57.43;100032.16;7683415;32;40525;-81
2023/01/30 06:10:36;;;;;;;28.60;15.82;;;;;;;-1.78;57.79;100035.56;7667446;32;38109;-80
2023/01/30 06:14:53;;;;;;;29.27;14.80;;;;;;;-1.60;57.32;100022.66;7658706;32;38058;-81
2023/01/30 06:19:09;;;;;;;26.77;13.85;;;;;;;-1.57;57.14;100032.12;7658805;32;39388;-80
2023/01/30 06:23:26;;;;;;;22.92;13.93;;;;;;;-1.62;57.77;100019.34;7658756;32;39611;-80
2023/01/30 06:27:44;;;;;;;27.77;14.32;;;;;;;-1.51;57.78;100010.81;7658649;32;37978;-81
2023/01/30 06:32:00;;;;;;;25.92;14.52;;;;;;;-1.62;58.29;100013.13;7664217;32;37180;-77
2023/01/30 06:36:16;;;;;;;24.08;14.93;;;;;;;-1.49;58.52;100007.13;7672766;32;39529;-77
2023/01/30 06:40:33;;;;;;;29.95;14.90;;;;;;;-1.26;58.24;99999.81;7664721;32;41216;-82
2023/01/30 06:44:49;;;;;;;27.75;15.10;;;;;;;-1.16;58.09;100002.16;7645043;32;38090;-81
2023/01/30 06:49:05;;;;;;;30.35;15.00;;;;;;;-1.11;58.16;99988.22;7658423;32;37928;-81
2023/01/30 06:53:24;;;;;;;27.75;15.40;;;;;;;-1.07;58.48;99984.13;7658364;32;39022;-80
2023/01/30 06:57:41;;;;;;;28.65;16.12;;;;;;;-1.18;59.32;99988.13;7658243;32;39089;-81
2023/01/30 07:01:57;;;;;;;34.97;17.45;;;;;;;-0.87;58.86;99998.53;7658266;32;37929;-80
2023/01/30 07:06:13;;;;;;;28.60;15.88;;;;;;;-0.92;59.10;100000.13;7661951;32;36928;-81
2023/01/30 07:10:31;;;;;;;27.42;14.95;;;;;;;-0.72;58.43;99993.09;7676533;32;40208;-81
2023/01/30 07:14:47;;;;;;;28.98;16.55;;;;;;;-0.53;57.86;100002.31;7684408;32;39174;-82
2023/01/30 07:19:04;;;;;;;28.42;16.00;;;;;;;-0.40;57.73;99997.06;7684249;32;37747;-81
2023/01/30 07:23:20;;;;;;;31.00;15.85;;;;;;;-0.39;57.83;100001.38;7684356;32;37344;-82
2023/01/30 07:27:36;;;;;;;27.58;15.90;;;;;;;-0.60;58.45;100004.94;7684298;32;39493;-81
2023/01/30 07:31:52;;;;;;;28.40;15.35;;;;;;;-0.72;59.15;99992.28;7684028;32;39812;-81
2023/01/30 07:36:09;;;;;;;32.03;18.08;;;;;;;-0.24;60.97;99984.41;7678471;32;38725;-81
2023/01/30 07:40:25;;;;;;;34.80;17.75;;;;;;;-0.26;60.00;99970.34;7660966;32;36933;-82
2023/01/30 07:44:42;;;;;;;36.05;18.45;;;;;;;-0.02;57.70;99967.22;7683410;32;37864;-82
2023/01/30 07:48:58;;;;;;;33.45;19.25;;;;;;;0.16;57.33;99968.53;7683441;32;39993;-82
2023/01/30 07:53:17;;;;;;;39.63;18.87;;;;;;;0.34;56.67;99974.16;7683703;32;37829;-81
2023/01/30 07:57:33;;;;;;;33.83;18.50;;;;;;;0.17;56.69;99954.94;7675555;32;37981;-83
2023/01/30 08:01:49;;;;;;;31.37;17.27;;;;;;;0.31;55.90;99904.84;7657427;32;38989;-80
2023/01/30 08:06:06;;;;;;;29.90;17.00;;;;;;;0.23;59.43;99910.37;7660563;32;40090;-83
2023/01/30 08:10:22;;;;;;;34.65;17.70;;;;;;;0.56;57.36;99877.47;7683192;32;37825;-82
2023/01/30 08:14:39;;;;;;;33.75;17.67;;;;;;;0.15;57.89;99889.13;7681673;32;37383;-82
2023/01/30 08:18:55;;;;;;;31.20;17.33;;;;;;;0.39;56.92;99894.97;7673894;32;39517;-84
2023/01/30 08:23:11;;;;;;;32.45;18.08;;;;;;;0.59;57.68;99911.94;7657770;32;40109;-83
2023/01/30 08:27:27;;;;;;;31.58;16.55;;;;;;;0.68;57.38;99905.34;7683792;32;37513;-83
2023/01/30 08:31:44;;;;;;;31.15;15.70;;;;;;;0.70;57.77;99892.53;7686521;32;37981;-82
2023/01/30 08:36:00;;;;;;;30.25;15.70;;;;;;;0.63;57.67;99891.69;7668151;32;39309;-85
2023/01/30 08:40:17;;;;;;;28.38;15.18;;;;;;;0.82;57.15;99892.75;7664033;32;40921;-84
2023/01/30 08:44:33;;;;;;;31.92;15.63;;;;;;;0.81;57.45;99887.59;7639019;32;37589;-82
2023/01/30 08:48:49;;;;;;;35.67;17.35;;;;;;;0.97;56.48;99887.19;7658283;32;37008;-82
2023/01/30 08:53:09;;;;;;;31.60;17.00;;;;;;;1.29;56.87;99877.47;7659760;32;38759;-82
2023/01/30 08:57:25;;;;;;;34.92;18.48;;;;;;;1.09;56.67;99872.13;7659446;32;40009;-83
2023/01/30 09:01:41;;;;;;;32.72;17.25;;;;;;;1.30;56.56;99862.19;7653860;32;38656;-83
2023/01/30 09:06:00;;;;;;;38.28;19.23;;;;;;;1.49;56.83;99860.47;7684552;32;36226;-84
2023/01/30 09:10:17;;;;;;;33.75;17.67;;;;;;;1.53;56.69;99844.75;7685930;32;39400;-82
2023/01/30 09:14:33;;;;;;;36.08;18.35;;;;;;;1.45;56.44;99846.66;7685736;32;39670;-83
2023/01/30 09:18:52;;;;;;;32.78;17.67;;;;;;;1.04;57.73;99842.38;7670880;32;38228;-83
2023/01/30 09:23:08;;;;;;;33.17;17.17;;;;;;;1.56;57.07;99825.53;7685968;32;38024;-83
2023/01/30 09:27:24;;;;;;;32.30;17.20;;;;;;;1.74;57.10;99822.16;7686398;32;40034;-82
2023/01/30 09:31:41;;;;;;;32.60;16.40;;;;;;;2.01;56.88;99826.37;7685644;32;40851;-84
2023/01/30 09:35:59;;;;;;;33.90;16.50;;;;;;;1.81;57.68;99814.88;7685541;32;36902;-83
2023/01/30 09:40:22;;;;;;;33.35;18.12;;;;;;;1.72;57.69;99795.47;7685278;32;36908;-81
2023/01/30 09:45:16;;;;;;;31.70;17.15;;;;;;;1.74;58.48;99788.03;7685415;32;39331;-83
2023/01/30 09:50:07;;;;;;;34.35;18.40;;;;;;;2.07;57.51;99795.13;7672696;32;40894;-81
2023/01/30 09:54:38;;;;;;;36.60;18.83;;;;;;;2.00;57.15;99791.62;7642854;32;37801;-82
2023/01/30 09:59:00;;;;;;;32.80;17.45;;;;;;;1.77;58.12;99784.09;7659299;32;37985;-86
2023/01/30 10:03:34;;;;;;;34.13;18.00;;;;;;;1.73;58.24;99770.25;7646030;32;39329;-86
2023/01/30 10:08:00;;;;;;;33.97;17.70;;;;;;;2.04;57.61;99758.72;7653686;32;40041;-84
2023/01/30 10:12:51;;;;;;;36.83;19.10;;;;;;;2.06;58.36;99745.06;7672154;32;37844;-84
2023/01/30 10:17:19;;;;;;;38.72;19.05;;;;;;;1.90;58.29;99743.72;7683886;32;36933;-84
2023/01/30 10:22:06;;;;;;;33.90;18.20;;;;;;;2.26;58.35;99747.63;7680642;32;40106;-83
2023/01/30 10:26:25;;;;;;;36.28;17.83;;;;;;;2.15;58.42;99724.91;7659959;32;40741;-83
2023/01/30 10:30:44;;;;;;;35.97;19.10;;;;;;;2.50;57.45;99713.69;7671656;32;38645;-84
2023/01/30 10:35:07;;;;;;;35.40;17.37;;;;;;;2.56;57.65;99711.97;7652324;32;37016;-83
2023/01/30 10:39:54;;;;;;;31.77;17.08;;;;;;;2.59;56.82;99700.78;7647536;32;39376;-83
2023/01/30 10:44:13;;;;;;;31.33;16.52;;;;;;;2.67;56.82;99678.09;7643495;32;40768;-85
2023/01/30 10:48:38;;;;;;;33.25;16.65;;;;;;;2.85;57.11;99669.25;7657882;32;37526;-84
2023/01/30 10:53:17;;;;;;;34.63;18.45;;;;;;;2.95;56.14;99647.97;7657825;32;37828;-85
2023/01/30 10:58:00;;;;;;;35.50;18.25;;;;;;;2.95;56.00;99637.19;7642919;32;39816;-85
2023/01/30 11:02:56;;;;;;;33.33;19.17;;;;;;;2.87;56.39;99624.88;7657286;32;39984;-85
2023/01/30 11:07:12;;;;;;;36.10;19.05;;;;;;;2.73;56.65;99623.38;7657332;32;37870;-85
2023/01/30 11:11:48;;;;;;;38.33;18.60;;;;;;;2.70;57.14;99613.06;7658000;32;36197;-84
2023/01/30 11:16:10;;;;;;;;;;;;;;;3.00;56.24;99594.25;7658215;32;39254;-85
2023/01/30 11:20:26;;;;;;;33.25;16.90;;;;;;;2.99;56.57;99598.00;7658131;32;40464;-84
2023/01/30 11:24:44;;;;;;;27.40;15.15;;;;;;;2.99;56.39;99579.97;7657896;32;37812;-85
2023/01/30 11:29:14;;;;;;;34.33;16.73;;;;;;;2.82;56.05;99573.56;7657973;32;37006;-84
2023/01/30 11:33:39;;;;;;;34.30;17.10;;;;;;;3.01;55.88;99567.09;7646100;32;39407;-83
2023/01/30 11:38:26;;;;;;;26.50;15.75;;;;;;;3.21;55.34;99555.25;7657795;32;39009;-84
2023/01/30 11:42:47;;;;;;;26.52;15.48;;;;;;;3.15;55.23;99556.16;7646335;32;38792;-84
2023/01/30 11:47:17;;;;;;;29.45;15.27;;;;;;;3.21;55.68;99544.47;7657415;32;37249;-84
2023/01/30 11:51:36;;;;;;;94.40;43.78;;;;;;;2.97;55.55;99539.00;7653856;32;39357;-78
2023/01/30 11:55:57;;;;;;;45.20;23.27;;;;;;;3.28;54.57;99515.56;7681735;32;41079;-81
2023/01/30 12:00:37;;;;;;;32.72;17.58;;;;;;;3.20;55.62;99510.47;7689145;32;38515;-83
2023/01/30 12:04:59;;;;;;;30.90;17.75;;;;;;;3.30;55.09;99520.72;7678355;32;37347;-85
2023/01/30 12:09:36;;;;;;;37.25;18.75;;;;;;;3.26;55.69;99501.50;7656829;32;39178;-84
2023/01/30 12:14:24;;;;;;;30.17;16.40;;;;;;;2.96;55.14;99494.25;7644368;32;40525;-82
2023/01/30 12:18:54;;;;;;;30.92;17.75;;;;;;;3.38;54.65;99491.56;7657148;32;37438;-83
2023/01/30 12:23:31;;;;;;;31.10;17.52;;;;;;;3.34;54.77;99479.56;7670527;32;37387;-85
2023/01/30 12:28:22;;;;;;;37.35;19.25;;;;;;;3.47;54.76;99485.84;7662592;32;39378;-83
2023/01/30 12:32:39;;;;;;;33.75;16.62;;;;;;;3.45;54.56;99475.28;7593939;32;39998;-83
2023/01/30 12:36:55;;;;;;;29.20;15.68;;;;;;;2.92;55.17;99479.59;7676280;32;38026;-83
2023/01/30 12:41:35;;;;;;;33.45;14.95;;;;;;;2.22;56.69;99483.59;7670564;32;37062;-83
2023/01/30 12:46:02;;;;;;;28.73;15.77;;;;;;;2.69;55.90;99468.75;7664111;32;39202;-83
2023/01/30 12:50:37;;;;;;;27.77;12.63;;;;;;;2.85;55.42;99453.84;7677815;32;40556;-83
2023/01/30 12:55:23;;;;;;;26.48;12.15;;;;;;;2.31;55.44;99435.72;7650353;32;37610;-83
2023/01/30 12:59:49;;;;;;;28.98;14.87;;;;;;;2.16;56.00;99432.59;7654633;32;37289;-84
2023/01/30 13:04:44;;;;;;;29.67;12.50;;;;;;;2.95;54.24;99411.00;7634807;32;40376;-83
2023/01/30 13:09:29;;;;;;;24.10;13.15;;;;;;;3.06;53.71;99417.47;7654787;32;40870;-82
2023/01/30 13:13:55;;;;;;;24.45;13.40;;;;;;;3.31;53.47;99401.94;7637284;32;38752;-83
2023/01/30 13:18:18;;;;;;;23.23;12.85;;;;;;;3.38;53.35;99397.25;7669028;32;37264;-83
2023/01/30 13:22:45;;;;;;;30.02;12.80;;;;;;;3.28;53.38;99405.09;7683018;32;39378;-84
2023/01/30 13:27:14;;;;;;;22.20;11.60;;;;;;;3.67;52.17;99386.53;7645400;32;38371;-84
2023/01/30 13:31:34;;;;;;;21.87;11.32;;;;;;;3.87;52.61;99398.84;7666680;32;37832;-81
2023/01/30 13:36:02;;;;;;;21.43;12.13;;;;;;;3.64;52.24;99395.12;7680348;32;37235;-83
2023/01/30 13:40:43;;;;;;;23.23;11.20;;;;;;;3.89;51.67;99389.44;7659216;32;39267;-84
2023/01/30 13:45:04;;;;;;;20.00;11.80;;;;;;;3.95;51.50;99377.72;7649117;32;39742;-82
2023/01/30 13:49:32;;;;;;;22.25;12.00;;;;;;;4.07;51.31;99383.09;7645870;32;36874;-83
2023/01/30 13:54:11;;;;;;;24.63;12.27;;;;;;;4.01;51.49;99384.03;7658537;32;37223;-84
2023/01/30 13:58:46;;;;;;;20.48;11.88;;;;;;;4.02;51.42;99382.13;7662754;32;39096;-84
2023/01/30 14:03:03;;;;;;;23.05;12.37;;;;;;;3.16;53.26;99396.19;7657616;32;39766;-84
2023/01/30 14:07:48;;;;;;;24.87;12.45;;;;;;;3.37;53.24;99397.47;7658466;32;38037;-83
2023/01/30 14:12:05;;;;;;;17.58;10.77;;;;;;;3.14;54.65;99395.56;7651388;32;37998;-82
2023/01/30 14:16:21;;;;;;;22.85;12.05;;;;;;;3.04;55.24;99387.25;7657627;32;39704;-83
2023/01/30 14:20:45;;;;;;;22.87;10.73;;;;;;;2.40;56.80;99385.09;7656497;32;40032;-83
2023/01/30 14:25:20;;;;;;;;;;;;;;;2.72;56.94;99384.84;7644267;32;39073;-83
2023/01/30 14:29:41;;;;;;;22.20;11.55;;;;;;;2.80;56.87;99387.22;7668340;32;36898;-82
2023/01/30 14:33:57;;;;;;;33.00;11.75;;;;;;;2.80;57.01;99379.12;7655669;32;39997;-83
2023/01/30 14:38:18;;;;;;;20.77;11.73;;;;;;;2.99;56.75;99393.34;7668771;32;39963;-83
2023/01/30 14:42:39;;;;;;;19.60;11.32;;;;;;;2.77;57.83;99393.88;7661266;32;37890;-83
2023/01/30 14:46:56;;;;;;;24.83;12.45;;;;;;;2.43;61.06;99392.69;7657641;32;37373;-81
2023/01/30 14:51:32;;;;;;;20.52;10.88;;;;;;;2.17;62.21;99402.75;7660955;32;38456;-86
2023/01/30 14:56:00;;;;;;;19.65;11.07;;;;;;;2.05;63.95;99397.34;7646493;32;39986;-84
2023/01/30 15:00:19;;;;;;;19.62;10.80;;;;;;;1.79;65.90;99393.06;7682383;32;37887;-82
2023/01/30 15:04:47;;;;;;;22.48;11.88;;;;;;;1.82;66.73;99398.00;7684727;32;37099;-82
2023/01/30 15:09:06;;;;;;;18.20;10.73;;;;;;;2.19;66.03;99389.09;7673556;32;166921;-82
2023/01/30 15:13:31;;;;;;;22.17;12.70;;;;;;;1.78;67.46;99396.00;7657613;32;39003;-85
2023/01/30 15:18:17;;;;;;;23.25;10.88;;;;;;;1.91;67.58;99401.22;7657644;32;37928;-84
2023/01/30 15:22:33;;;;;;;17.48;11.05;;;;;;;2.39;66.71;99397.72;7657520;32;37178;-82
2023/01/30 15:27:00;;;;;;;20.05;11.23;;;;;;;1.60;70.12;99410.25;7657102;32;40137;-82
2023/01/30 15:31:21;;;;;;;25.33;13.02;;;;;;;1.91;69.41;99408.47;7643387;32;39857;-83
2023/01/30 15:35:37;;;;;;;18.98;10.73;;;;;;;1.78;69.49;99412.13;7645341;32;37567;-83
2023/01/30 15:40:30;;;;;;;20.58;11.82;;;;;;;1.45;71.05;99424.84;7656811;32;36882;-83
2023/01/30 15:45:06;;;;;;;25.42;13.68;;;;;;;0.92;72.89;99425.28;7624954;32;39032;-83
2023/01/30 15:49:55;;;;;;;20.33;11.57;;;;;;;0.97;73.40;99424.63;7630599;32;40810;-83
2023/01/30 15:54:17;;;;;;;27.40;13.15;;;;;;;1.11;73.36;99421.63;7628938;32;37896;-82
2023/01/30 15:58:36;;;;;;;27.48;13.80;;;;;;;2.07;69.69;99410.56;7617462;32;37933;-85
2023/01/30 16:02:53;;;;;;;21.75;12.75;;;;;;;1.44;71.77;99409.75;7623355;32;40138;-85
2023/01/30 16:07:24;;;;;;;23.75;10.20;;;;;;;1.09;73.07;99420.22;7642951;32;39671;-83
2023/01/30 16:11:42;;;;;;;;;;;;;;;1.58;71.72;99428.44;7652082;32;37966;-83
2023/01/30 16:16:15;;;;;;;23.27;13.52;;;;;;;1.40;72.17;99434.63;7675445;32;36869;-81
2023/01/30 16:20:59;;;;;;;24.70;14.70;;;;;;;1.39;71.86;99433.78;7625549;32;39492;-84
2023/01/30 16:25:28;;;;;;;24.70;14.27;;;;;;;1.80;70.89;99420.78;7669194;32;40632;-84
2023/01/30 16:29:52;;;;;;;28.20;14.80;;;;;;;1.95;70.04;99439.22;7663346;32;37870;-83
2023/01/30 16:34:26;;;;;;;;;;;;;;;1.74;71.04;99435.91;7667644;32;38111;-83
2023/01/30 16:38:54;;;;;;;28.08;13.85;;;;;;;1.74;71.85;99438.59;7668144;32;40334;-83
2023/01/30 16:43:20;;;;;;;30.23;15.45;;;;;;;1.86;70.62;99439.53;7655624;32;40005;-81
2023/01/30 16:47:39;;;;;;;24.87;14.23;;;;;;;2.34;68.98;99423.66;7677682;32;37953;-80
2023/01/30 16:52:04;;;;;;;28.10;15.23;;;;;;;2.31;68.81;99434.88;7675623;32;36956;-82
2023/01/30 16:56:20;;;;;;;28.27;14.13;;;;;;;2.36;68.62;99429.63;7672724;32;39332;-82
2023/01/30 17:00:39;;;;;;;26.12;15.55;;;;;;;2.57;67.55;99421.09;7666554;32;38988;-82
2023/01/30 17:05:13;;;;;;;20.27;11.73;;;;;;;2.48;68.21;99432.38;7645931;32;37675;-82
2023/01/30 17:09:44;;;;;;;19.77;8.88;;;;;;;2.38;69.71;99431.06;7659520;32;36976;-82
2023/01/30 17:14:22;;;;;;;19.40;8.93;;;;;;;2.41;69.69;99416.31;7645997;32;40165;-81
2023/01/30 17:18:38;;;;;;;18.40;10.07;;;;;;;2.45;69.57;99401.38;7659031;32;39907;-81
2023/01/30 17:22:59;;;;;;;16.10;8.80;;;;;;;2.29;69.78;99410.06;7659013;32;37897;-82
2023/01/30 17:27:16;;;;;;;19.40;9.90;;;;;;;1.90;70.78;99409.50;7645830;32;37767;-83
2023/01/30 17:31:32;;;;;;;23.25;11.02;;;;;;;2.60;69.25;99398.25;7659081;32;39269;-83
2023/01/30 17:35:49;;;;;;;18.58;9.77;;;;;;;2.31;69.64;99391.84;7658394;32;40061;-84
2023/01/30 17:40:34;;;;;;;16.58;9.43;;;;;;;2.49;69.17;99386.41;7685383;32;38568;-82
2023/01/30 17:44:51;;;;;;;19.12;9.68;;;;;;;2.19;69.86;99391.78;7663553;32;37954;-84
2023/01/30 17:49:19;;;;;;;18.65;10.40;;;;;;;2.18;69.39;99399.03;7658603;32;39306;-83
2023/01/30 17:53:35;;;;;;;21.02;10.35;;;;;;;2.67;68.27;99392.78;7645264;32;41191;-82
2023/01/30 17:57:52;;;;;;;21.77;10.98;;;;;;;2.55;68.40;99400.81;7674646;32;37724;-83
2023/01/30 18:02:09;;;;;;;20.83;11.23;;;;;;;2.42;68.58;99404.53;7660964;32;37931;-84
2023/01/30 18:06:30;;;;;;;20.85;10.95;;;;;;;2.33;69.11;99411.25;7658630;32;39471;-85
2023/01/30 18:10:47;;;;;;;19.12;10.55;;;;;;;2.75;67.78;99404.03;7648840;32;40186;-85
2023/01/30 18:15:03;;;;;;;20.98;12.27;;;;;;;2.69;67.99;99401.44;7675416;32;39152;-83
2023/01/30 18:19:22;;;;;;;22.45;11.70;;;;;;;3.12;66.11;99400.38;7668603;32;37247;-84
2023/01/30 18:23:39;;;;;;;18.00;11.07;;;;;;;2.89;66.61;99401.97;7681850;32;39404;-83
2023/01/30 18:27:55;;;;;;;21.85;10.63;;;;;;;2.94;66.84;99393.22;7658053;32;39977;-82
2023/01/30 18:32:12;;;;;;;18.87;10.65;;;;;;;3.05;65.92;99395.09;7678565;32;38779;-83
2023/01/30 18:36:33;;;;;;;19.77;11.45;;;;;;;2.79;67.16;99412.47;7663828;32;35965;-83
2023/01/30 18:40:49;;;;;;;20.45;11.60;;;;;;;2.22;68.78;99402.91;7656598;32;39392;-82
2023/01/30 18:45:06;;;;;;;19.60;12.05;;;;;;;2.40;68.01;99412.00;7656475;32;39726;-81
2023/01/30 18:49:23;;;;;;;21.95;11.43;;;;;;;2.79;67.00;99423.25;7658195;32;38629;-81
2023/01/30 18:53:40;;;;;;;19.90;11.85;;;;;;;2.92;66.07;99433.81;7657670;32;37190;-82
2023/01/30 18:57:58;;;;;;;20.20;11.48;;;;;;;2.09;68.62;99448.81;7658896;32;39319;-82
2023/01/30 19:02:15;;;;;;;21.83;10.85;;;;;;;2.95;66.34;99438.75;7663809;32;40234;-81
2023/01/30 19:06:34;;;;;;;21.95;11.25;;;;;;;3.39;64.70;99449.25;7683990;32;38016;-82
2023/01/30 19:10:50;;;;;;;17.65;9.70;;;;;;;3.26;64.34;99460.25;7682785;32;38263;-78
2023/01/30 19:15:06;;;;;;;17.10;9.40;;;;;;;2.99;65.80;99458.78;7683436;32;39385;-81
2023/01/30 19:19:31;;;;;;;19.33;9.60;;;;;;;3.62;63.62;99453.81;7664975;32;40528;-83
2023/01/30 19:23:52;;;;;;;20.10;11.27;;;;;;;3.69;63.38;99451.84;7656969;32;37991;-82
2023/01/30 19:28:09;;;;;;;18.02;10.05;;;;;;;2.90;65.54;99454.78;7657159;32;37981;-82
2023/01/30 19:32:25;;;;;;;17.17;9.05;;;;;;;3.33;64.10;99439.41;7656908;32;39313;-81
2023/01/30 19:36:41;;;;;;;18.10;9.85;;;;;;;3.51;63.22;99436.59;7657308;32;39892;-82
2023/01/30 19:40:57;;;;;;;16.75;9.18;;;;;;;3.27;63.77;99451.94;7656710;32;37672;-84
2023/01/30 19:45:14;;;;;;;14.63;8.50;;;;;;;2.91;65.35;99459.09;7656751;32;36955;-82
2023/01/30 19:49:30;;;;;;;20.75;9.43;;;;;;;3.83;62.59;99454.28;7656468;32;40077;-81
2023/01/30 19:53:58;;;;;;;14.13;8.82;;;;;;;3.93;62.16;99452.66;7643489;32;39979;-82
2023/01/30 19:58:14;;;;;;;15.00;8.00;;;;;;;3.11;64.14;99447.22;7656479;32;37787;-81
2023/01/30 20:02:31;;;;;;;13.43;7.95;;;;;;;3.22;63.65;99442.91;7656139;32;37265;-82
2023/01/30 20:06:47;;;;;;;14.43;8.25;;;;;;;3.74;62.35;99441.19;7656335;32;40118;-83
2023/01/30 20:11:07;;;;;;;13.27;7.90;;;;;;;3.71;62.23;99447.03;7656199;32;39918;-84
2023/01/30 20:15:23;;;;;;;14.20;8.18;;;;;;;4.16;61.14;99458.22;7656036;32;37760;-83
2023/01/30 20:19:39;;;;;;;12.43;7.62;;;;;;;4.04;60.95;99445.59;7656241;32;37170;-82
2023/01/30 20:23:57;;;;;;;13.62;7.47;;;;;;;3.68;62.19;99447.50;7655204;32;39082;-82